createdAt,value
2023-04-18T00:09:02.804Z,12.62
2023-04-18T00:19:02.449Z,12.66
2023-04-18T00:29:03.745Z,12.85
2023-04-18T00:39:04.619Z,12.74
2023-04-18T00:49:05.792Z,12.83
2023-04-18T00:59:07.000Z,12.86
2023-04-18T01:09:07.852Z,12.74
2023-04-18T01:19:09.108Z,12.78
2023-04-18T01:29:10.036Z,12.78
2023-04-18T01:39:11.120Z,12.58
2023-04-18T01:49:12.199Z,12.49
2023-04-18T01:59:13.283Z,12.42
2023-04-18T02:09:14.281Z,12.64
2023-04-18T02:19:15.338Z,12.51
2023-04-18T02:29:16.390Z,12.51
2023-04-18T02:49:18.525Z,12.49
2023-04-18T02:59:19.508Z,12.53
2023-04-18T03:09:20.770Z,12.54
2023-04-18T03:19:21.593Z,12.63
2023-04-18T03:29:23.791Z,12.56
2023-04-18T03:39:23.749Z,12.52
2023-04-18T03:49:24.969Z,12.53
2023-04-18T03:59:25.848Z,12.33
2023-04-18T04:09:26.809Z,12.42
2023-04-18T04:19:27.865Z,12.41
2023-04-18T04:29:28.969Z,12.34
2023-04-18T04:39:30.000Z,12.50
2023-04-18T04:49:31.041Z,12.58
2023-04-18T04:59:32.083Z,12.57
2023-04-18T05:09:33.333Z,12.55
2023-04-18T05:19:34.206Z,12.57
2023-04-18T05:29:35.443Z,12.72
2023-04-18T05:39:36.858Z,12.74
2023-04-18T05:49:37.479Z,12.74
2023-04-18T05:59:38.555Z,12.59
2023-04-18T06:09:39.895Z,12.80
2023-04-18T06:19:42.166Z,12.95
2023-04-18T06:29:42.895Z,13.04
2023-04-18T06:39:42.951Z,13.29
2023-04-18T06:49:44.099Z,13.30
2023-04-18T06:59:45.286Z,13.43
2023-04-18T07:09:46.284Z,13.37
2023-04-18T07:19:48.758Z,13.53
2023-04-18T07:29:49.265Z,13.49
2023-04-18T07:39:49.759Z,13.63
2023-04-18T07:59:52.110Z,14.04
2023-04-18T08:19:54.576Z,14.55
2023-04-18T08:29:55.762Z,14.83
2023-04-18T08:39:56.902Z,14.94
2023-04-18T08:49:58.141Z,15.02
2023-04-18T08:59:59.409Z,15.23
2023-04-18T09:10:00.705Z,15.73
2023-04-18T09:20:02.042Z,16.28
2023-04-18T09:30:03.582Z,16.24
2023-04-18T09:40:05.060Z,16.61
2023-04-18T09:50:06.243Z,16.75
2023-04-18T10:00:07.245Z,16.97
2023-04-18T10:10:08.588Z,16.86
2023-04-18T10:20:10.229Z,17.05
2023-04-18T10:30:11.400Z,17.51
2023-04-18T10:40:12.740Z,17.26
2023-04-18T10:50:14.349Z,17.46
2023-04-18T11:00:15.700Z,17.65
2023-04-18T11:10:17.216Z,17.68
2023-04-18T11:20:18.792Z,17.54
2023-04-18T11:30:20.203Z,17.97
2023-04-18T11:40:21.702Z,17.92
2023-04-18T11:50:23.437Z,17.71
2023-04-18T12:00:24.948Z,17.80
2023-04-18T12:10:26.668Z,18.18
2023-04-18T12:20:27.950Z,18.06
2023-04-18T12:40:30.610Z,17.44
2023-04-18T12:50:32.416Z,17.38
2023-04-18T13:00:33.562Z,17.52
2023-04-18T13:30:37.915Z,17.88
2023-04-18T13:40:39.310Z,17.77
2023-04-18T13:50:40.734Z,17.98
2023-04-18T14:00:42.418Z,17.74
2023-04-18T14:10:43.605Z,17.74
2023-04-18T14:20:45.127Z,17.88
2023-04-18T14:30:46.653Z,17.83
2023-04-18T14:40:47.762Z,17.97
2023-04-18T14:50:49.170Z,17.97
2023-04-18T15:00:51.769Z,18.04
2023-04-18T15:10:52.023Z,18.04
2023-04-18T15:20:53.174Z,18.10
2023-04-18T15:30:54.740Z,17.98
2023-04-18T15:40:55.786Z,17.83
2023-04-18T15:50:57.157Z,17.92
2023-04-18T16:00:58.533Z,17.73
2023-04-18T16:10:59.862Z,17.79
2023-04-18T16:21:01.296Z,17.57
2023-04-18T16:31:02.887Z,17.48
2023-04-18T16:41:04.354Z,17.36
2023-04-18T16:51:05.532Z,17.14
2023-04-18T17:01:06.748Z,16.94
2023-04-18T17:11:08.861Z,16.82
2023-04-18T17:21:09.472Z,16.72
2023-04-18T17:31:10.899Z,16.63
2023-04-18T17:41:12.254Z,16.42
2023-04-18T17:51:13.446Z,16.38
2023-04-18T18:01:14.693Z,16.16
2023-04-18T18:11:15.942Z,16.05
2023-04-18T18:21:17.278Z,15.72
2023-04-18T18:31:18.531Z,15.64
2023-04-18T18:41:19.650Z,15.59
2023-04-18T18:51:20.875Z,15.55
2023-04-18T19:01:22.333Z,15.40
2023-04-18T19:11:23.502Z,15.28
2023-04-18T19:21:24.797Z,15.12
2023-04-18T19:31:25.974Z,15.17
2023-04-18T19:41:27.155Z,15.29
2023-04-18T19:51:28.732Z,15.16
2023-04-18T20:01:29.607Z,15.23
2023-04-18T20:11:30.747Z,15.06
2023-04-18T20:21:33.468Z,15.05
2023-04-18T20:31:33.263Z,15.04
2023-04-18T20:41:34.510Z,14.99
2023-04-18T20:51:35.592Z,14.64
2023-04-18T21:01:37.244Z,14.57
2023-04-18T21:11:37.818Z,14.49
2023-04-18T21:21:39.173Z,14.31
2023-04-18T21:31:40.169Z,14.26
2023-04-18T21:41:41.588Z,14.11
2023-04-18T22:01:43.558Z,14.15
2023-04-18T22:11:44.672Z,14.12
2023-04-18T22:31:46.940Z,14.22
2023-04-18T22:51:48.965Z,14.25
2023-04-18T23:01:50.088Z,14.13
2023-04-18T23:11:51.171Z,13.94
2023-04-18T23:21:52.294Z,13.97
2023-04-18T23:31:53.487Z,13.86
2023-04-18T23:51:55.682Z,13.70
